Latest Weather Observations for Newdegate

IDW60801

Issued at 1:32 pm WST Tuesday 27 January 2015 (issued every 30 minutes, with the page automatically refreshed every 10 minutes)

About weather observations | Map of weather stations | Latest weather observations for WA | Other Formats
Station Details ID: 010692 Name: NEWDEGATE RESEARCH STATION Lat: -33.11 Lon: 118.84 Height: 320.0 m
Data from the previous 72 hours. | See also: Recent months at Newdegate
Date/Time
WST
Temp
°C
App
Temp
°C
Dew
Point
Rel
Hum
%
Delta-T
°C
Wind Press
QNH
hPa
Press
MSL
hPa
Rain
since 9 am
mm
Dir
 
Spd
km/h
Gust
km/h
Spd
kts
Gust
kts
27/01:30pm 33.4 30.1 2.3 14 16.0 SE 9 19 5 10 1010.3 1008.8 0.0
27/01:00pm 33.5 29.8 2.4 14 16.1 NE 11 19 6 10 1010.7 1009.2 0.0
27/12:30pm 33.4 30.2 3.3 15 15.8 N 9 20 5 11 1011.0 1009.5 0.0
27/12:00pm 33.2 29.0 4.0 16 15.5 NE 15 22 8 12 1011.2 1009.8 0.0
27/11:30am 31.9 27.8 4.6 18 14.5 ENE 15 26 8 14 1011.7 1010.3 0.0
27/11:00am 31.2 26.6 5.6 20 13.7 ENE 19 32 10 17 1012.4 1010.9 0.0
27/10:30am 30.1 25.7 6.7 23 12.7 NE 19 28 10 15 1012.6 1011.1 0.0
27/10:00am 29.4 25.7 7.9 26 11.9 NE 17 28 9 15 1012.9 1011.4 0.0
27/09:30am 27.4 23.5 7.3 28 10.9 ENE 17 24 9 13 1013.1 1011.6 0.0
27/09:00am 26.1 22.3 7.7 31 10.0 NE 17 24 9 13 1013.3 1011.8 0.0
27/08:30am 24.1 19.9 8.1 36 8.6 ENE 20 26 11 14 1013.5 1012.0 0.0
27/08:00am 22.1 17.4 7.9 40 7.5 NE 22 28 12 15 1013.5 1012.0 0.0
27/07:30am 20.2 16.3 9.5 50 5.8 ENE 20 26 11 14 1013.4 1011.9 0.0
27/07:00am 18.1 14.2 9.5 57 4.6 ENE 20 24 11 13 1013.4 1011.9 0.0
27/06:30am 16.6 14.2 10.0 65 3.5 E 13 19 7 10 1013.3 1011.8 0.0
27/06:00am 14.2 12.9 10.0 76 2.2 ESE 7 9 4 5 1013.3 1011.8 0.0
27/05:30am 12.2 10.6 8.9 80 1.7 ESE 7 9 4 5 1013.4 1011.9 0.0
27/05:00am 12.3 10.3 8.8 79 1.8 ESE 9 11 5 6 1013.2 1011.7 0.0
27/04:30am 12.7 10.8 9.2 79 1.8 ESE 9 11 5 6 1013.0 1011.5 0.0
27/04:00am 13.1 10.7 9.9 81 1.7 SE 13 15 7 8 1012.7 1011.2 0.0
27/03:30am 13.0 11.3 9.8 81 1.7 ESE 9 9 5 5 1012.7 1011.2 0.0
27/03:00am 13.6 11.7 10.4 81 1.7 ESE 11 15 6 8 1012.7 1011.2 0.0
27/02:30am 13.6 12.1 10.4 81 1.7 ESE 9 13 5 7 1012.8 1011.3 0.0
27/02:00am 13.9 11.7 10.7 81 1.7 ESE 13 17 7 9 1013.0 1011.5 0.0
27/01:30am 14.1 12.0 11.1 82 1.6 ESE 13 17 7 9 1013.2 1011.7 0.0
27/01:00am 14.1 11.9 10.9 81 1.7 ESE 13 19 7 10 1013.5 1012.0 0.0
27/12:30am 14.4 12.3 11.2 81 1.7 ESE 13 19 7 10 1013.7 1012.2 0.0
27/12:00am 14.7 11.8 11.1 79 1.9 ESE 17 24 9 13 1013.7 1012.2 0.0
 
Date/Time
WST
Temp
°C
App
Temp
°C
Dew
Point
Rel
Hum
%
Delta-T
°C
Wind Press
QNH
hPa
Press
MSL
hPa
Rain
since 9 am
mm
Dir
 
Spd
km/h
Gust
km/h
Spd
kts
Gust
kts
26/11:30pm 14.9 12.1 11.3 79 2.0 ESE 17 20 9 11 1014.1 1012.7 0.0
26/11:00pm 15.3 13.2 11.3 77 2.2 ESE 13 19 7 10 1014.3 1012.9 0.0
26/10:30pm 15.6 13.5 11.0 74 2.5 ESE 13 28 7 15 1014.3 1012.9 0.0
26/10:00pm 16.2 14.1 11.2 72 2.7 ESE 13 20 7 11 1014.4 1013.0 0.0
26/09:30pm 17.0 13.8 11.3 69 3.1 ESE 19 28 10 15 1014.3 1012.9 0.0
26/09:00pm 17.7 13.1 11.0 65 3.7 ESE 26 39 14 21 1014.2 1012.8 0.0
26/08:30pm 18.7 13.7 10.8 60 4.3 SE 28 41 15 22 1013.8 1012.3 0.0
26/08:00pm 19.9 15.1 10.3 54 5.3 ESE 26 35 14 19 1013.9 1012.5 0.0
26/07:30pm 21.4 16.1 9.9 48 6.3 SE 28 35 15 19 1013.8 1012.3 0.0
26/07:00pm 23.3 17.8 9.3 41 7.7 SE 28 39 15 21 1013.5 1012.0 0.0
26/06:30pm 25.3 18.8 8.3 34 9.3 SE 32 43 17 23 1013.2 1011.7 0.0
26/06:00pm 26.8 20.2 7.8 30 10.3 SE 32 43 17 23 1012.8 1011.3 0.0
26/05:30pm 30.0 25.3 3.1 18 13.7 E 17 26 9 14 1012.5 1011.0 0.0
26/05:00pm 30.0 24.6 2.3 17 14.0 E 20 30 11 16 1012.5 1011.0 0.0
26/04:30pm 30.4 25.0 2.6 17 14.1 E 20 30 11 16 1012.7 1011.2 0.0
26/04:00pm 30.5 25.4 4.3 19 13.7 ENE 20 32 11 17 1012.9 1011.4 0.0
26/03:30pm 30.0 24.9 3.1 18 13.7 ESE 19 28 10 15 1013.1 1011.6 0.0
26/03:00pm 30.4 25.2 3.4 18 13.9 ESE 20 32 11 17 1013.3 1011.8 0.0
26/02:30pm 29.4 24.5 4.1 20 13.1 E 19 30 10 16 1013.7 1012.2 0.0
26/02:00pm 29.9 26.0 5.2 21 13.1 ENE 15 24 8 13 1014.0 1012.6 0.0
26/01:30pm 28.9 25.3 5.1 22 12.5 ESE 13 32 7 17 1014.3 1012.9 0.0
26/01:00pm 28.1 23.4 5.0 23 12.1 E 19 32 10 17 1014.8 1013.4 0.0
26/12:30pm 28.1 23.0 6.2 25 11.7 E 22 35 12 19 1015.3 1013.9 0.0
26/12:00pm 27.4 22.9 6.8 27 11.0 E 20 32 11 17 1015.8 1014.3 0.0
26/11:30am 26.0 21.0 6.6 29 10.3 E 22 33 12 18 1016.3 1014.8 0.0
26/11:00am 25.7 20.8 6.8 30 10.0 E 22 37 12 20 1016.7 1015.3 0.0
26/10:30am 24.4 18.3 6.6 32 9.4 E 28 41 15 22 1017.1 1015.7 0.0
26/10:00am 23.0 17.8 7.1 36 8.3 E 24 39 13 21 1017.3 1015.9 0.0
26/09:30am 21.7 16.5 7.2 39 7.6 E 24 35 13 19 1017.7 1016.3 0.0
26/09:00am 21.2 15.3 7.4 41 7.2 ENE 28 35 15 19 1017.9 1016.5 0.0
26/08:30am 19.6 13.4 7.7 46 6.2 E 30 37 16 20 1018.3 1016.9 0.0
26/08:00am 18.3 12.1 7.7 50 5.5 ENE 30 37 16 20 1018.5 1017.1 0.0
26/07:30am 16.7 10.4 7.6 55 4.6 ENE 30 37 16 20 1018.8 1017.4 0.0
26/07:00am 15.5 10.1 7.8 60 3.9 E 26 35 14 19 1019.0 1017.5 0.0
26/06:30am 13.9 8.8 7.7 66 3.1 E 24 32 13 17 1018.6 1017.2 0.0
26/06:00am 12.7 8.5 7.6 71 2.5 ESE 19 28 10 15 1018.5 1017.1 0.0
26/05:30am 12.0 7.8 7.5 74 2.2 E 19 26 10 14 1018.3 1016.9 0.0
26/05:00am 12.0 7.6 7.5 74 2.2 ESE 20 28 11 15 1018.2 1016.8 0.0
26/04:30am 12.3 8.0 7.8 74 2.2 ESE 20 28 11 15 1018.0 1016.6 0.0
26/04:00am 12.4 8.3 7.7 73 2.3 E 19 26 10 14 1017.8 1016.4 0.0
26/03:30am 12.6 8.4 8.1 74 2.3 ESE 20 28 11 15 1017.8 1016.4 0.0
26/03:00am 12.7 8.2 8.4 75 2.2 ESE 22 32 12 17 1017.7 1016.3 0.0
26/02:30am 12.7 7.8 8.6 76 2.1 ESE 24 32 13 17 1017.7 1016.3 0.0
26/02:00am 12.6 8.1 8.7 77 2.0 ESE 22 30 12 16 1017.8 1016.4 0.0
26/01:30am 12.6 8.7 8.7 77 2.0 ESE 19 24 10 13 1018.1 1016.7 0.0
26/01:00am 12.9 8.5 8.8 76 2.1 ESE 22 32 12 17 1018.3 1016.9 0.0
26/12:30am 13.1 8.3 8.8 75 2.2 ESE 24 32 13 17 1018.4 1017.0 0.0
26/12:00am 13.3 8.5 8.8 74 2.3 ESE 24 30 13 16 1018.6 1017.2 0.0
 
Date/Time
WST
Temp
°C
App
Temp
°C
Dew
Point
Rel
Hum
%
Delta-T
°C
Wind Press
QNH
hPa
Press
MSL
hPa
Rain
since 9 am
mm
Dir
 
Spd
km/h
Gust
km/h
Spd
kts
Gust
kts
25/11:30pm 13.4 8.6 8.9 74 2.3 ESE 24 30 13 16 1018.7 1017.3 0.0
25/11:00pm 13.5 8.6 8.6 72 2.5 ESE 24 33 13 18 1018.8 1017.4 0.0
25/10:30pm 13.8 8.5 8.6 71 2.7 ESE 26 35 14 19 1019.0 1017.5 0.0
25/10:00pm 14.0 9.1 8.4 69 2.8 ESE 24 33 13 18 1018.8 1017.4 0.0
25/09:30pm 14.4 9.1 8.6 68 3.0 SE 26 39 14 21 1018.7 1017.3 0.0
25/09:00pm 14.9 9.6 8.4 65 3.3 SE 26 41 14 22 1018.7 1017.3 0.0
25/08:30pm 15.7 9.6 8.4 62 3.8 SE 30 41 16 22 1018.4 1017.0 0.0
25/08:00pm 16.6 10.8 8.1 57 4.4 SE 28 39 15 21 1018.0 1016.6 0.0
25/07:30pm 17.8 12.4 7.8 52 5.2 SE 26 43 14 23 1017.5 1016.1 0.0
25/07:00pm 19.6 13.4 7.7 46 6.2 SE 30 41 16 22 1017.3 1015.9 0.0
25/06:30pm 21.4 15.5 7.3 40 7.4 SE 28 43 15 23 1016.8 1015.4 0.0
25/06:00pm 22.8 15.7 6.6 35 8.4 SE 33 43 18 23 1016.5 1015.0 0.0
25/05:30pm 24.4 17.7 5.7 30 9.7 SE 30 39 16 21 1016.0 1014.5 0.0
25/05:10pm 25.5 19.3 6.2 29 10.1 SE 28 48 15 26 1015.8 1014.3 0.0
25/05:00pm 25.5 19.2 5.7 28 10.3 SE 28 35 15 19 1016.0 1014.5 0.0
25/04:30pm 25.9 19.9 5.5 27 10.6 ESE 26 37 14 20 1016.2 1014.7 0.0
25/04:00pm 26.3 20.3 5.3 26 10.9 SE 26 41 14 22 1016.5 1015.0 0.0
25/03:30pm 26.9 21.3 5.2 25 11.3 SE 24 41 13 22 1016.7 1015.3 0.0
25/03:00pm 27.1 22.1 4.8 24 11.5 SE 20 33 11 18 1017.0 1015.6 0.0
25/02:30pm 26.2 20.9 5.2 26 10.9 SE 22 35 12 19 1017.3 1015.9 0.0
25/02:00pm 25.9 20.9 4.4 25 10.9 ESE 20 30 11 16 1017.5 1016.1 0.0
25/01:30pm 26.3 21.6 5.3 26 10.9 ESE 19 35 10 19 1017.4 1016.0 0.0
25/01:00pm 24.8 19.8 4.5 27 10.3 ESE 20 35 11 19 1017.5 1016.1 0.0
25/12:30pm 24.6 19.3 4.9 28 10.0 ESE 22 32 12 17 1018.0 1016.6 0.0
25/12:00pm 24.1 19.3 5.5 30 9.5 ESE 20 32 11 17 1018.5 1017.1 0.0
25/11:30am 22.8 17.5 4.8 31 9.1 SE 22 33 12 18 1019.0 1017.5 0.0
25/11:00am 22.1 16.8 5.1 33 8.5 SE 22 37 12 20 1019.2 1017.7 0.0
25/10:30am 21.5 16.4 6.2 37 7.8 ESE 22 33 12 18 1019.3 1017.8 0.0
25/10:00am 20.9 15.5 6.4 39 7.4 ESE 24 35 13 19 1019.4 1018.0 0.0
25/09:30am 20.4 15.2 7.4 43 6.8 SE 24 35 13 19 1019.8 1018.4 0.0
25/09:00am 19.1 14.3 7.5 47 6.0 ESE 22 35 12 19 1019.8 1018.4 0.0
25/08:30am 17.8 12.6 7.2 50 5.4 ESE 24 43 13 23 1019.9 1018.5 0.0
25/08:00am 16.9 12.6 7.8 55 4.7 ESE 20 33 11 18 1019.9 1018.5 0.0
25/07:30am 17.1 12.0 7.7 54 4.8 ESE 24 33 13 18 1020.0 1018.6 0.0
25/07:00am 16.3 11.6 7.8 57 4.3 ESE 22 30 12 16 1019.7 1018.3 0.0
25/06:30am 15.4 11.3 8.6 64 3.5 E 20 28 11 15 1019.3 1017.8 0.0
25/06:00am 14.2 12.2 10.0 76 2.2 E 11 20 6 11 1018.8 1017.4 0.0
25/05:30am 12.9 11.4 10.4 85 1.3 SE 9 13 5 7 1018.6 1017.2 0.0
25/05:00am 11.5 10.1 9.4 87 1.1 SSE 7 9 4 5 1018.2 1016.8 0.0
25/04:30am 10.9 9.3 8.8 87 1.1 SE 7 9 4 5 1017.7 1016.3 0.0
25/04:00am 11.2 9.6 8.9 86 1.2 SE 7 9 4 5 1017.7 1016.3 0.0
25/03:30am 11.6 9.8 9.3 86 1.2 SSE 9 9 5 5 1017.6 1016.2 0.0
25/03:00am 11.9 10.2 9.8 87 1.1 SE 9 13 5 7 1017.5 1016.1 0.0
25/02:30am 11.8 10.0 9.5 86 1.2 SE 9 9 5 5 1017.6 1016.2 0.0
25/02:00am 12.2 10.5 9.9 86 1.2 SE 9 11 5 6 1017.7 1016.3 0.0
25/01:30am 12.7 11.1 10.1 84 1.4 SE 9 13 5 7 1017.9 1016.5 0.0
25/01:00am 13.1 11.5 10.3 83 1.5 ESE 9 13 5 7 1017.9 1016.5 0.0
25/12:30am 13.7 11.4 10.5 81 1.7 SE 13 15 7 8 1017.9 1016.5 0.0
25/12:00am 14.0 11.3 10.4 79 1.9 ESE 15 20 8 11 1017.9 1016.5 0.0
 
Date/Time
WST
Temp
°C
App
Temp
°C
Dew
Point
Rel
Hum
%
Delta-T
°C
Wind Press
QNH
hPa
Press
MSL
hPa
Rain
since 9 am
mm
Dir
 
Spd
km/h
Gust
km/h
Spd
kts
Gust
kts
24/11:30pm 14.4 11.4 10.8 79 1.9 ESE 17 22 9 12 1018.1 1016.7 0.0
24/11:00pm 14.4 11.7 10.4 77 2.1 ESE 15 20 8 11 1018.1 1016.7 0.0
24/10:30pm 14.7 11.9 10.1 74 2.4 SE 15 24 8 13 1018.1 1016.7 0.0
24/10:00pm 15.1 12.3 10.1 72 2.6 SE 15 20 8 11 1018.1 1016.7 0.0
24/09:30pm 15.5 11.9 9.8 69 3.0 SE 19 24 10 13 1018.0 1016.6 0.0
24/09:00pm 16.3 11.5 10.2 67 3.3 SE 26 37 14 20 1017.8 1016.4 0.0
24/08:30pm 16.9 11.7 10.3 65 3.6 SE 28 37 15 20 1017.4 1016.0 0.0
24/08:00pm 17.7 12.5 10.3 62 4.0 SE 28 39 15 21 1017.2 1015.8 0.0
24/07:30pm 19.0 13.6 9.5 54 5.1 SE 28 39 15 21 1016.7 1015.3 0.0
24/07:00pm 20.2 14.2 8.5 47 6.2 SE 30 41 16 22 1016.3 1014.8 0.0
24/06:30pm 21.8 15.8 7.2 39 7.6 SE 28 39 15 21 1015.9 1014.4 0.0
24/06:00pm 23.4 17.7 6.7 34 8.7 SE 26 39 14 21 1015.3 1013.9 0.0
24/05:30pm 26.2 20.0 6.3 28 10.5 SE 28 39 15 21 1014.8 1013.4 0.0
24/05:00pm 26.8 22.0 5.7 26 11.1 SE 20 30 11 16 1014.6 1013.2 0.0
24/04:30pm 26.6 21.8 5.5 26 11.0 S 20 28 11 15 1014.6 1013.2 0.0
24/04:00pm 27.2 22.7 4.3 23 11.7 SSE 17 24 9 13 1014.5 1013.1 0.0
24/03:30pm 27.6 24.0 5.2 24 11.7 S 13 28 7 15 1014.7 1013.3 0.0
24/03:00pm 26.6 22.8 3.8 23 11.5 SSW 13 22 7 12 1014.9 1013.5 0.0
24/02:30pm 28.3 24.1 5.8 24 11.9 S 17 26 9 14 1015.0 1013.6 0.0
24/02:00pm 27.3 23.5 5.6 25 11.4 S 15 26 8 14 1015.2 1013.8 0.0

Other Formats:

Comma delimited format used in spreadsheet applications
http://www.bom.gov.au/fwo/IDW60801/IDW60801.94628.axf

JavaScript Object Notation format (JSON) in row-major order
http://www.bom.gov.au/fwo/IDW60801/IDW60801.94628.json